Time;durP1;ratioP1;P1;durP2;ratioP2;P2;SDS_P1;SDS_P2;PMS_P1;PMS_P2;Temp;Humidity;BMP_temperature;BMP_pressure;BME280_temperature;BME280_humidity;BME280_pressure;Samples;Min_cycle;Max_cycle;Signal;HPM_P1;HPM_P2
2023/10/12 00:02:13;;;;;;;8.85;4.35;;;;;;;12.58;53.82;95855.00;5007780;28;20045;-77
2023/10/12 00:04:43;;;;;;;6.30;3.90;;;;;;;12.55;53.90;95833.00;5009132;28;20078;-77
2023/10/12 00:07:15;;;;;;;6.05;4.20;;;;;;;12.52;54.37;95842.16;5026013;28;20026;-77
2023/10/12 00:09:47;;;;;;;7.38;4.25;;;;;;;12.45;54.42;95837.56;5011199;28;20037;-77
2023/10/12 00:12:14;;;;;;;10.55;5.05;;;;;;;12.45;54.37;95834.81;5027409;28;20029;-77
2023/10/12 00:14:41;;;;;;;6.80;4.22;;;;;;;12.43;54.24;95843.50;5028047;28;20075;-76
2023/10/12 00:17:07;;;;;;;8.93;4.85;;;;;;;12.35;54.38;95830.28;5012048;28;20025;-77
2023/10/12 00:19:33;;;;;;;6.63;4.05;;;;;;;12.35;54.49;95827.53;5011108;28;20123;-77
2023/10/12 00:22:08;;;;;;;7.35;4.50;;;;;;;12.33;54.28;95824.41;5028308;28;20055;-78
2023/10/12 00:24:34;;;;;;;6.55;4.03;;;;;;;12.29;54.47;95819.00;5027762;28;20432;-76
2023/10/12 00:26:59;;;;;;;8.80;4.03;;;;;;;12.27;54.71;95818.63;5027910;28;20033;-76
2023/10/12 00:29:25;;;;;;;8.50;4.95;;;;;;;12.23;54.83;95813.22;5010685;28;20032;-78
2023/10/12 00:31:52;;;;;;;6.95;4.72;;;;;;;12.25;54.89;95818.28;5045329;28;20068;-76
2023/10/12 00:34:23;;;;;;;9.55;4.53;;;;;;;12.20;54.63;95811.28;5044769;28;20566;-76
2023/10/12 00:36:52;;;;;;;6.82;4.10;;;;;;;12.20;54.93;95808.53;5026019;28;20026;-76
2023/10/12 00:39:20;;;;;;;8.82;4.55;;;;;;;12.18;54.77;95805.44;5008502;28;20052;-75
2023/10/12 00:41:45;;;;;;;6.30;4.40;;;;;;;12.13;55.01;95808.69;4991866;28;20032;-75
2023/10/12 00:44:18;;;;;;;11.35;4.63;;;;;;;12.14;55.00;95809.47;4992337;28;20025;-77
2023/10/12 00:46:58;;;;;;;6.28;4.40;;;;;;;12.10;55.19;95808.75;5009932;28;20127;-76
2023/10/12 00:49:27;;;;;;;8.05;4.43;;;;;;;12.05;55.30;95801.78;5029525;28;20075;-77
2023/10/12 00:52:22;;;;;;;8.80;4.55;;;;;;;12.10;55.04;95806.00;5000989;28;20033;-77
2023/10/12 00:54:49;;;;;;;11.15;4.70;;;;;;;12.08;55.11;95795.41;5010061;28;20055;-77
2023/10/12 00:57:16;;;;;;;7.32;4.60;;;;;;;12.01;55.42;95809.34;5027205;28;20408;-77
2023/10/12 00:59:43;;;;;;;9.93;4.43;;;;;;;12.03;55.22;95795.13;5026840;28;20388;-76
2023/10/12 01:02:15;;;;;;;7.70;4.05;;;;;;;12.03;55.29;95806.16;5027740;28;20132;-77
2023/10/12 01:04:52;;;;;;;8.48;4.22;;;;;;;12.01;55.01;95798.31;5010714;28;20028;-76
2023/10/12 01:07:34;;;;;;;5.53;4.15;;;;;;;12.01;55.22;95798.31;5012583;28;20021;-77
2023/10/12 01:10:06;;;;;;;7.22;4.20;;;;;;;11.96;55.38;95796.81;5030733;28;20055;-77
2023/10/12 01:12:34;;;;;;;8.57;4.50;;;;;;;11.92;55.41;95787.84;5011401;28;20036;-77
2023/10/12 01:15:08;;;;;;;6.85;4.30;;;;;;;11.95;55.54;95797.25;5012381;28;20494;-78
2023/10/12 01:17:35;;;;;;;6.38;4.22;;;;;;;11.88;55.59;95795.44;5035877;28;20028;-77
2023/10/12 01:20:12;;;;;;;8.40;4.28;;;;;;;11.88;55.66;95798.19;5016784;28;20527;-78
2023/10/12 01:22:40;;;;;;;8.73;4.32;;;;;;;11.87;55.61;95796.63;5029962;28;20108;-77
2023/10/12 01:25:19;;;;;;;7.35;4.40;;;;;;;11.85;55.43;95792.75;5045521;28;20515;-77
2023/10/12 01:27:46;;;;;;;7.65;4.63;;;;;;;11.78;55.97;95788.13;5045302;28;20431;-78
2023/10/12 01:30:21;;;;;;;6.40;4.40;;;;;;;11.84;55.94;95789.22;5010254;28;20036;-77
2023/10/12 01:32:53;;;;;;;9.02;4.43;;;;;;;11.82;56.03;95788.88;5026888;28;20730;-75
2023/10/12 01:35:26;;;;;;;6.35;3.88;;;;;;;11.74;55.97;95786.63;5028686;28;20017;-75
2023/10/12 01:38:00;;;;;;;10.13;4.63;;;;;;;11.70;56.17;95795.00;5011623;28;20020;-76
2023/10/12 01:40:26;;;;;;;8.98;4.80;;;;;;;11.73;56.13;95783.09;5011443;28;20029;-76
2023/10/12 01:42:51;;;;;;;6.07;4.63;;;;;;;11.70;56.06;95787.50;5026417;28;20158;-76
2023/10/12 01:45:19;;;;;;;7.40;4.70;;;;;;;11.70;56.25;95792.22;5010966;28;20059;-76
2023/10/12 01:48:11;;;;;;;10.13;4.72;;;;;;;11.72;56.24;95789.03;5029196;28;20017;-76
2023/10/12 01:50:37;;;;;;;7.80;4.50;;;;;;;11.64;56.37;95788.38;5033088;28;20128;-75
2023/10/12 01:53:07;;;;;;;8.90;4.75;;;;;;;11.65;56.43;95787.22;5015056;28;20033;-76
2023/10/12 01:55:33;;;;;;;8.52;4.13;;;;;;;11.63;56.54;95789.59;5030537;28;20021;-75
2023/10/12 01:57:59;;;;;;;8.60;5.20;;;;;;;11.59;56.08;95791.66;5048730;28;20028;-76
2023/10/12 02:00:30;;;;;;;9.55;4.80;;;;;;;11.58;56.01;95798.34;5030271;28;20499;-76
2023/10/12 02:03:12;;;;;;;6.00;4.30;;;;;;;11.53;56.14;95785.88;4995277;28;20056;-76
2023/10/12 02:05:46;;;;;;;6.40;4.78;;;;;;;11.52;56.28;95791.78;4996924;28;20037;-77
2023/10/12 02:08:16;;;;;;;8.30;5.30;;;;;;;11.47;56.44;95795.81;5012144;28;20026;-76
2023/10/12 02:10:43;;;;;;;6.97;4.25;;;;;;;11.45;56.80;95798.19;5019220;28;20029;-76
2023/10/12 02:13:10;;;;;;;6.82;4.75;;;;;;;11.43;56.73;95803.34;5030314;28;20040;-76
2023/10/12 02:15:37;;;;;;;6.75;4.75;;;;;;;11.38;56.63;95796.34;5048237;28;20048;-77
2023/10/12 02:18:10;;;;;;;7.90;5.68;;;;;;;11.41;56.10;95794.72;5030262;28;20061;-78
2023/10/12 02:20:42;;;;;;;12.30;5.78;;;;;;;11.38;56.28;95795.56;5014150;28;20029;-76
2023/10/12 02:23:11;;;;;;;10.30;5.45;;;;;;;11.30;56.30;95796.91;5014224;28;20033;-77
2023/10/12 02:25:40;;;;;;;8.95;5.00;;;;;;;11.32;56.19;95800.78;5013457;28;20037;-76
2023/10/12 02:28:07;;;;;;;6.88;4.22;;;;;;;11.26;56.04;95794.22;4994864;28;20034;-77
2023/10/12 02:30:34;;;;;;;7.55;4.57;;;;;;;11.27;56.04;95803.25;5012667;28;20052;-76
2023/10/12 02:33:00;;;;;;;11.73;5.25;;;;;;;11.21;56.33;95802.19;5030532;28;20064;-77
2023/10/12 02:35:36;;;;;;;10.13;5.00;;;;;;;11.21;56.37;95811.22;5029794;28;20068;-77
2023/10/12 02:38:04;;;;;;;7.70;4.60;;;;;;;11.11;56.27;95793.69;5030627;28;20498;-77
2023/10/12 02:40:32;;;;;;;10.80;5.22;;;;;;;11.18;56.38;95806.53;5030570;28;20025;-77
2023/10/12 02:42:59;;;;;;;8.05;4.60;;;;;;;11.11;56.60;95798.41;5028877;28;20032;-77
2023/10/12 02:45:27;;;;;;;9.48;4.70;;;;;;;11.12;56.43;95797.97;5010249;28;20603;-76
2023/10/12 02:47:53;;;;;;;7.13;4.75;;;;;;;11.09;56.64;95795.31;5004640;28;20029;-78
2023/10/12 02:50:27;;;;;;;9.32;4.85;;;;;;;11.06;56.73;95796.91;5009825;28;20036;-77
2023/10/12 02:52:53;;;;;;;9.77;4.95;;;;;;;11.02;56.72;95795.44;5011133;28;20076;-77
2023/10/12 02:57:54;;;;;;;13.32;5.75;;;;;;;11.03;56.63;95791.47;5024408;28;20169;-77
2023/10/12 03:00:22;;;;;;;10.85;5.00;;;;;;;10.99;56.81;95791.53;5030320;28;20037;-77
2023/10/12 03:02:52;;;;;;;8.10;4.88;;;;;;;10.94;57.07;95786.50;5046987;28;20062;-76
2023/10/12 03:05:30;;;;;;;8.15;4.72;;;;;;;10.90;56.99;95789.34;5030146;28;20047;-77
2023/10/12 03:07:56;;;;;;;8.38;5.03;;;;;;;10.83;57.07;95783.91;5031200;28;20403;-76
2023/10/12 03:10:26;;;;;;;8.82;4.90;;;;;;;10.84;57.11;95796.50;5009305;28;20037;-77
2023/10/12 03:12:54;;;;;;;15.02;5.22;;;;;;;10.82;57.31;95790.63;5010716;28;20017;-76
2023/10/12 03:15:27;;;;;;;8.75;5.53;;;;;;;10.83;57.08;95791.41;5047775;28;20046;-77
2023/10/12 03:17:58;;;;;;;10.50;4.85;;;;;;;10.78;57.36;95781.69;5012580;28;20520;-77
2023/10/12 03:20:23;;;;;;;10.18;4.95;;;;;;;10.75;57.50;95787.22;5047335;28;20025;-76
2023/10/12 03:22:53;;;;;;;8.88;4.75;;;;;;;10.73;57.55;95793.16;5029219;28;20021;-77
2023/10/12 03:25:43;;;;;;;10.32;5.45;;;;;;;10.74;57.78;95780.94;5012901;28;20028;-77
2023/10/12 03:28:28;;;;;;;7.10;5.25;;;;;;;10.67;57.70;95772.81;5021575;28;20037;-77
2023/10/12 03:30:54;;;;;;;9.32;5.65;;;;;;;10.71;57.84;95781.00;5001244;28;20033;-77
2023/10/12 03:33:27;;;;;;;11.88;5.63;;;;;;;10.64;58.00;95779.13;5012044;28;20055;-77
2023/10/12 03:36:02;;;;;;;11.45;5.78;;;;;;;10.45;58.07;95764.13;5030001;28;20033;-76
2023/10/12 03:38:33;;;;;;;7.38;5.75;;;;;;;10.65;58.29;95797.19;5030307;28;20116;-77
2023/10/12 03:43:46;;;;;;;7.80;5.50;;;;;;;10.59;58.37;95796.88;5031496;28;20459;-77
2023/10/12 03:46:26;;;;;;;7.93;5.97;;;;;;;10.51;58.48;95778.16;5028192;28;20039;-77
2023/10/12 03:49:23;;;;;;;9.88;6.07;;;;;;;10.58;58.40;95794.53;5009948;28;20033;-77
2023/10/12 03:51:48;;;;;;;11.65;6.82;;;;;;;10.54;58.53;95789.09;5026590;28;20029;-77
2023/10/12 03:54:26;;;;;;;8.80;6.25;;;;;;;10.48;58.80;95778.97;5013811;28;20079;-75
2023/10/12 03:56:53;;;;;;;8.23;6.22;;;;;;;10.55;58.59;95795.38;5030158;28;20143;-78
2023/10/12 03:59:36;;;;;;;12.30;6.32;;;;;;;10.53;58.84;95789.50;5028832;28;20029;-77
2023/10/12 04:02:02;;;;;;;14.70;6.95;;;;;;;10.49;58.47;95791.53;5029456;28;20098;-78
2023/10/12 04:04:30;;;;;;;11.95;6.70;;;;;;;10.50;58.24;95801.34;5028098;28;20483;-76
2023/10/12 04:09:43;;;;;;;11.77;6.43;;;;;;;10.42;58.22;95797.91;5009069;28;20025;-76
2023/10/12 04:14:46;;;;;;;13.82;6.18;;;;;;;10.42;58.05;95800.66;5032818;28;20519;-79
2023/10/12 04:17:34;;;;;;;8.85;6.45;;;;;;;10.35;58.19;95798.03;5028711;28;20063;-79
2023/10/12 04:25:33;;;;;;;14.05;7.78;;;;;;;10.28;58.32;95798.91;5034518;28;20036;-77
2023/10/12 04:30:43;;;;;;;10.73;6.38;;;;;;;10.24;58.52;95789.94;5046043;28;20374;-77
2023/10/12 04:33:18;;;;;;;14.70;6.47;;;;;;;10.22;58.73;95792.28;5001901;28;20107;-77
2023/10/12 04:44:03;;;;;;;8.05;6.00;;;;;;;10.26;58.87;95784.00;5029871;28;20033;-77
2023/10/12 04:46:38;;;;;;;19.63;8.55;;;;;;;10.25;58.84;95791.47;5010463;28;20474;-77
2023/10/12 04:49:29;;;;;;;11.60;6.55;;;;;;;10.23;59.22;95793.88;5008979;28;20024;-77
2023/10/12 04:52:04;;;;;;;11.85;7.20;;;;;;;10.22;59.18;95789.53;5025466;28;20454;-77
2023/10/12 04:54:29;;;;;;;8.93;6.68;;;;;;;10.25;58.90;95788.72;5010512;28;20029;-76
2023/10/12 04:57:13;;;;;;;9.73;6.55;;;;;;;10.24;59.03;95783.66;5002668;28;20037;-75
2023/10/12 05:02:28;;;;;;;9.27;6.32;;;;;;;10.21;59.38;95796.25;5027963;28;20136;-75
2023/10/12 05:09:50;;;;;;;11.15;6.97;;;;;;;10.30;59.57;95798.50;5026997;28;20531;-76
2023/10/12 05:12:16;;;;;;;13.70;6.72;;;;;;;10.33;59.49;95787.44;5028285;28;20032;-77
2023/10/12 05:14:41;;;;;;;15.70;7.85;;;;;;;10.32;59.35;95793.34;5044473;28;20041;-77
2023/10/12 05:17:09;;;;;;;17.88;8.27;;;;;;;10.31;59.45;95783.56;5005589;28;20052;-77
2023/10/12 05:19:35;;;;;;;13.50;8.30;;;;;;;10.39;59.38;95800.72;5027636;28;20360;-77
2023/10/12 05:22:01;;;;;;;16.30;9.73;;;;;;;10.41;59.07;95807.34;5011895;28;20044;-78
2023/10/12 05:24:26;;;;;;;14.27;9.02;;;;;;;10.44;59.37;95801.03;5010250;28;20026;-78
2023/10/12 05:26:57;;;;;;;20.58;9.30;;;;;;;10.45;59.23;95808.09;5013855;28;20025;-77
2023/10/12 05:31:59;;;;;;;14.48;9.07;;;;;;;10.46;59.12;95817.13;5049079;28;20025;-76
2023/10/12 05:37:23;;;;;;;12.88;8.63;;;;;;;10.52;59.17;95826.44;5031995;28;20017;-76
2023/10/12 05:39:51;;;;;;;13.15;7.95;;;;;;;10.56;59.16;95827.19;5032489;28;20025;-77
2023/10/12 05:42:19;;;;;;;17.65;7.30;;;;;;;10.58;59.21;95825.56;5048032;28;20471;-76
2023/10/12 05:44:48;;;;;;;15.52;8.50;;;;;;;10.62;58.99;95828.28;5029960;28;20021;-75
2023/10/12 05:47:14;;;;;;;13.88;7.95;;;;;;;10.67;58.99;95827.00;5030171;28;20096;-75
2023/10/12 05:49:44;;;;;;;13.25;7.70;;;;;;;10.75;58.76;95829.25;5029452;28;20112;-77
2023/10/12 05:52:10;;;;;;;13.68;8.52;;;;;;;10.76;58.66;95830.03;5030586;28;20155;-76
2023/10/12 05:54:38;;;;;;;13.68;7.22;;;;;;;10.81;58.65;95835.06;5013080;28;20048;-77
2023/10/12 05:57:18;;;;;;;11.75;7.22;;;;;;;10.81;58.34;95829.56;5029516;28;20032;-78
2023/10/12 05:59:45;;;;;;;9.38;6.60;;;;;;;10.92;58.23;95832.16;5014383;28;20127;-80
2023/10/12 06:02:10;;;;;;;13.68;6.03;;;;;;;10.99;57.85;95818.25;5012615;28;20032;-77
2023/10/12 06:04:36;;;;;;;10.57;5.93;;;;;;;11.05;57.36;95825.63;5030379;28;20113;-84
2023/10/12 06:07:03;;;;;;;8.80;5.88;;;;;;;11.09;57.38;95820.06;5029752;28;20617;-83
2023/10/12 06:09:36;;;;;;;10.70;6.75;;;;;;;11.21;57.30;95826.94;5047322;28;20511;-83
2023/10/12 06:12:09;;;;;;;;;;;;;;;11.27;57.04;95831.53;5015581;28;20033;-83
2023/10/12 06:14:35;;;;;;;14.23;6.03;;;;;;;11.31;56.84;95829.53;5024575;28;20031;-82
2023/10/12 06:17:02;;;;;;;13.18;6.88;;;;;;;11.35;56.69;95827.47;5030393;28;20037;-81
2023/10/12 06:19:34;;;;;;;10.13;6.45;;;;;;;11.43;56.62;95817.13;5029470;28;20025;-80
2023/10/12 06:21:59;;;;;;;12.15;6.07;;;;;;;11.48;56.26;95830.41;5047473;28;20032;-82
2023/10/12 06:24:33;;;;;;;9.43;6.82;;;;;;;11.56;56.25;95822.78;5012021;28;20025;-84
2023/10/12 06:27:02;;;;;;;13.93;7.45;;;;;;;11.62;56.20;95821.88;5030605;28;20052;-83
2023/10/12 06:29:28;;;;;;;12.50;6.80;;;;;;;11.69;55.83;95831.97;5013732;28;20579;-82
2023/10/12 06:31:54;;;;;;;10.48;6.57;;;;;;;11.76;55.41;95815.31;5007736;28;20132;-84
2023/10/12 06:34:21;;;;;;;11.48;6.20;;;;;;;11.89;55.33;95826.50;4981411;28;1122749;-85
2023/10/12 06:36:48;;;;;;;15.38;6.70;;;;;;;11.92;55.05;95825.66;5029576;28;20055;-82
2023/10/12 06:44:22;;;;;;;13.63;5.88;;;;;;;12.16;54.72;95834.66;5029730;28;20112;-81
2023/10/12 06:46:54;;;;;;;12.77;7.72;;;;;;;12.21;54.44;95826.66;5015496;28;20041;-81
2023/10/12 06:49:28;;;;;;;10.95;6.90;;;;;;;12.28;54.37;95825.72;5030663;28;20087;-85
2023/10/12 06:51:54;;;;;;;11.27;6.03;;;;;;;12.24;54.28;95805.72;5031748;28;20021;-82
2023/10/12 06:57:31;;;;;;;11.85;5.72;;;;;;;12.49;53.93;95841.00;5031220;28;20102;-83
2023/10/12 07:02:29;;;;;;;9.10;5.68;;;;;;;12.62;53.51;95830.09;5029889;28;20033;-83
2023/10/12 07:04:59;;;;;;;10.10;5.80;;;;;;;12.72;53.37;95827.09;5024843;28;20120;-76
2023/10/12 07:07:44;;;;;;;13.85;6.50;;;;;;;12.71;53.15;95817.25;5008494;28;20025;-78
2023/10/12 07:12:52;;;;;;;11.73;6.18;;;;;;;12.98;52.84;95836.34;5028952;28;20033;-78
2023/10/12 07:15:21;;;;;;;10.80;6.27;;;;;;;13.11;52.61;95843.94;5030023;28;20029;-79
2023/10/12 07:17:50;;;;;;;11.27;5.72;;;;;;;13.22;51.87;95836.19;5029088;28;20040;-80
2023/10/12 07:23:05;;;;;;;9.60;5.57;;;;;;;13.32;51.86;95824.13;5028851;28;20396;-79
2023/10/12 07:25:35;;;;;;;12.07;6.22;;;;;;;13.40;51.54;95824.69;5013716;28;20052;-78
2023/10/12 07:28:01;;;;;;;7.95;4.75;;;;;;;13.48;51.49;95832.38;5041160;28;20024;-81
2023/10/12 07:30:36;;;;;;;12.35;6.13;;;;;;;13.57;51.45;95834.50;5044082;28;20033;-79
2023/10/12 07:33:07;;;;;;;10.95;6.20;;;;;;;13.71;51.15;95836.13;5033011;28;20063;-79
2023/10/12 07:35:42;;;;;;;12.65;6.00;;;;;;;13.79;50.70;95829.19;5051832;28;20112;-79
2023/10/12 07:38:12;;;;;;;10.10;6.20;;;;;;;13.96;50.60;95829.94;5014722;28;20066;-79
2023/10/12 07:40:48;;;;;;;9.15;5.72;;;;;;;14.09;50.42;95828.75;5029489;28;20048;-79
2023/10/12 07:43:18;;;;;;;10.00;6.20;;;;;;;14.28;50.11;95829.03;5047696;28;20529;-78
2023/10/12 07:45:48;;;;;;;9.63;5.72;;;;;;;14.43;49.62;95830.13;5028559;28;20027;-79
2023/10/12 07:48:29;;;;;;;9.98;6.38;;;;;;;14.63;49.35;95826.44;5030740;28;20088;-79
2023/10/12 07:50:55;;;;;;;10.90;6.07;;;;;;;14.89;48.77;95830.75;5013784;28;20025;-79
2023/10/12 07:53:24;;;;;;;10.95;6.35;;;;;;;15.10;48.53;95826.53;5029087;28;20198;-79
2023/10/12 07:55:53;;;;;;;13.82;6.00;;;;;;;15.33;47.65;95826.16;5029582;28;20115;-79
2023/10/12 07:58:21;;;;;;;13.13;6.22;;;;;;;15.56;47.44;95827.00;5028696;28;20063;-78
2023/10/12 08:00:51;;;;;;;11.68;7.10;;;;;;;15.86;46.67;95814.50;5029307;28;20105;-80
2023/10/12 08:03:24;;;;;;;8.23;5.57;;;;;;;16.23;45.81;95809.19;5028823;28;20086;-80
2023/10/12 08:06:06;;;;;;;9.65;6.25;;;;;;;16.65;45.18;95806.81;5029127;28;20086;-80
2023/10/12 08:08:35;;;;;;;12.00;6.53;;;;;;;17.05;43.91;95800.53;5031790;28;20086;-80
2023/10/12 08:11:09;;;;;;;11.43;6.53;;;;;;;17.55;42.99;95817.91;5012600;28;20021;-79
2023/10/12 08:13:39;;;;;;;10.77;5.80;;;;;;;17.97;42.03;95804.97;5013878;28;20051;-80
2023/10/12 08:16:05;;;;;;;9.88;5.32;;;;;;;18.43;41.05;95809.72;5012848;28;20037;-79
2023/10/12 08:26:47;;;;;;;8.30;5.88;;;;;;;20.07;37.52;95802.53;5046909;28;20067;-79
2023/10/12 08:31:48;;;;;;;11.73;5.85;;;;;;;20.93;36.09;95792.31;5029032;28;20063;-80
2023/10/12 08:39:39;;;;;;;9.25;5.88;;;;;;;22.38;32.92;95776.63;5026888;28;20037;-79
2023/10/12 08:44:53;;;;;;;14.25;6.53;;;;;;;23.62;31.01;95777.53;5025104;28;20400;-78
2023/10/12 08:47:26;;;;;;;12.73;6.32;;;;;;;24.37;29.92;95778.84;5007860;28;20025;-78
2023/10/12 08:50:01;;;;;;;13.63;5.13;;;;;;;25.13;28.96;95777.88;5024525;28;20037;-79
2023/10/12 08:52:31;;;;;;;10.77;5.65;;;;;;;25.96;27.31;95767.66;5025021;28;20017;-79
2023/10/12 08:55:19;;;;;;;13.90;4.82;;;;;;;26.81;26.68;95760.22;5023734;28;20029;-79
2023/10/12 08:57:56;;;;;;;9.10;5.35;;;;;;;27.89;25.31;95763.53;5022077;28;20034;-79
2023/10/12 09:03:14;;;;;;;12.77;4.70;;;;;;;30.04;22.74;95754.59;5025457;28;20033;-79
2023/10/12 09:05:40;;;;;;;11.52;4.55;;;;;;;30.86;21.05;95753.31;5025221;28;20033;-79
2023/10/12 09:13:30;;;;;;;10.35;4.50;;;;;;;32.77;19.46;95737.34;5026090;28;20084;-80
2023/10/12 09:16:00;;;;;;;8.38;4.18;;;;;;;33.40;18.40;95744.63;5007517;28;20049;-81
2023/10/12 09:18:29;;;;;;;12.52;4.45;;;;;;;34.03;17.52;95742.63;5024812;28;20555;-81
2023/10/12 09:21:03;;;;;;;11.15;4.70;;;;;;;34.57;17.37;95731.75;5023833;28;20025;-80
2023/10/12 09:29:20;;;;;;;16.58;4.30;;;;;;;35.83;15.97;95721.78;5024493;28;20025;-81
2023/10/12 09:36:29;;;;;;;12.98;4.10;;;;;;;37.38;14.94;95704.81;5024590;28;20437;-81
2023/10/12 09:39:00;;;;;;;10.02;4.40;;;;;;;37.92;14.73;95704.63;5023805;28;20025;-80
2023/10/12 09:41:33;;;;;;;12.87;4.23;;;;;;;38.39;14.45;95703.09;5024081;28;20535;-80
2023/10/12 09:44:04;;;;;;;6.57;3.90;;;;;;;38.93;13.76;95691.16;5024512;28;20037;-80
2023/10/12 09:46:31;;;;;;;7.32;4.35;;;;;;;39.29;13.69;95684.34;5023815;28;20053;-80
2023/10/12 09:49:02;;;;;;;9.48;4.80;;;;;;;39.72;13.29;95686.50;5024682;28;20044;-81
2023/10/12 09:51:33;;;;;;;9.65;4.00;;;;;;;39.65;12.91;95690.34;5023482;28;20036;-80
2023/10/12 09:54:00;;;;;;;11.45;4.50;;;;;;;39.85;13.05;95674.44;5024513;28;20121;-80
2023/10/12 09:56:34;;;;;;;6.90;4.22;;;;;;;40.30;12.99;95663.75;5023534;28;20460;-80
2023/10/12 09:59:08;;;;;;;14.13;5.32;;;;;;;40.67;12.37;95666.13;5008297;28;20029;-81
2023/10/12 10:04:27;;;;;;;10.27;4.72;;;;;;;41.19;11.80;95652.75;5023539;28;20030;-81
2023/10/12 10:07:15;;;;;;;9.40;4.45;;;;;;;41.50;11.80;95655.34;5024220;28;20180;-81
2023/10/12 10:09:46;;;;;;;9.30;4.43;;;;;;;41.76;11.58;95651.19;5027563;28;20513;-81
2023/10/12 10:12:16;;;;;;;8.27;4.50;;;;;;;42.23;11.35;95650.25;5027037;28;20041;-81
2023/10/12 10:14:45;;;;;;;9.77;4.78;;;;;;;42.48;10.95;95652.38;5011383;28;20123;-81
2023/10/12 10:17:14;;;;;;;10.43;4.72;;;;;;;42.59;11.11;95654.47;5026461;28;20183;-81
2023/10/12 10:19:39;;;;;;;7.38;4.38;;;;;;;42.86;11.01;95648.00;5011524;28;20057;-81
2023/10/12 10:22:16;;;;;;;9.40;4.13;;;;;;;43.18;10.69;95643.19;5026601;28;20484;-81
2023/10/12 10:24:46;;;;;;;7.30;4.13;;;;;;;42.94;10.58;95645.53;5012258;28;20468;-81
2023/10/12 10:27:15;;;;;;;7.75;4.20;;;;;;;42.99;10.64;95637.81;5028238;28;20072;-81
2023/10/12 10:29:56;;;;;;;9.23;4.85;;;;;;;42.91;10.88;95638.16;5026820;28;20053;-80
2023/10/12 10:32:38;;;;;;;10.13;4.63;;;;;;;43.09;10.68;95626.81;5027410;28;20033;-79
2023/10/12 10:35:08;;;;;;;12.52;4.32;;;;;;;43.23;10.57;95621.78;5046685;28;20127;-81
2023/10/12 10:37:39;;;;;;;12.18;4.20;;;;;;;43.80;10.36;95612.41;5014128;28;20025;-81
2023/10/12 10:40:09;;;;;;;9.33;4.30;;;;;;;44.19;10.32;95612.94;5030173;28;20115;-81
2023/10/12 10:42:36;;;;;;;11.05;4.05;;;;;;;44.64;9.82;95611.44;5013903;28;20546;-81
2023/10/12 10:45:15;;;;;;;9.40;3.65;;;;;;;44.55;9.94;95603.72;5030656;28;20028;-80
2023/10/12 10:47:49;;;;;;;9.45;4.03;;;;;;;44.67;9.82;95601.41;5047588;28;20067;-81
2023/10/12 10:50:15;;;;;;;9.45;3.70;;;;;;;44.96;9.58;95594.75;5014641;28;20032;-81
2023/10/12 10:52:44;;;;;;;7.53;3.78;;;;;;;45.50;9.38;95590.69;5012877;28;20025;-81
2023/10/12 10:55:11;;;;;;;8.82;3.58;;;;;;;45.43;9.15;95594.75;5014028;28;20032;-80
2023/10/12 10:57:39;;;;;;;6.45;3.53;;;;;;;45.37;9.25;95579.22;5030047;28;20025;-81
2023/10/12 11:00:17;;;;;;;11.10;3.63;;;;;;;45.77;8.89;95583.88;5013138;28;20021;-81
2023/10/12 11:02:47;;;;;;;7.57;3.65;;;;;;;46.03;9.19;95568.91;5030082;28;20025;-81
2023/10/12 11:05:19;;;;;;;9.93;3.97;;;;;;;46.20;9.03;95570.34;5012888;28;20032;-81
2023/10/12 11:07:50;;;;;;;9.25;3.42;;;;;;;45.73;9.16;95557.53;5047869;28;20498;-81
2023/10/12 11:13:17;;;;;;;8.93;3.53;;;;;;;46.02;9.16;95553.66;4992717;28;19913;-81
2023/10/12 11:15:42;;;;;;;6.93;3.75;;;;;;;46.31;8.91;95538.09;4989715;28;20483;-81
2023/10/12 11:18:17;;;;;;;10.93;3.50;;;;;;;46.42;8.81;95536.34;5004396;28;20026;-81
2023/10/12 11:20:49;;;;;;;7.82;3.25;;;;;;;46.37;8.78;95533.94;4989356;28;20026;-81
2023/10/12 11:23:16;;;;;;;6.75;2.97;;;;;;;46.39;8.69;95531.84;5005044;28;20048;-81
2023/10/12 11:25:42;;;;;;;7.43;3.20;;;;;;;45.39;9.19;95527.81;4972106;28;20026;-81
2023/10/12 11:28:20;;;;;;;7.13;3.00;;;;;;;43.97;9.78;95524.94;5005312;28;20032;-80
2023/10/12 11:30:46;;;;;;;10.13;3.65;;;;;;;42.06;11.49;95513.59;5004149;28;20551;-81
2023/10/12 11:33:12;;;;;;;9.60;4.55;;;;;;;40.24;12.70;95507.88;4988705;28;20539;-80
2023/10/12 11:35:41;;;;;;;11.60;3.85;;;;;;;39.00;13.57;95505.53;4987960;28;20104;-82
2023/10/12 11:38:20;;;;;;;12.00;3.60;;;;;;;38.04;14.32;95490.28;4988871;28;20117;-80
2023/10/12 11:40:53;;;;;;;7.85;3.67;;;;;;;37.52;14.87;95493.72;5004642;28;20547;-81
2023/10/12 11:43:21;;;;;;;10.50;3.95;;;;;;;36.70;16.14;95492.59;4972167;28;20037;-80
2023/10/12 11:46:03;;;;;;;7.55;4.10;;;;;;;35.93;16.50;95490.22;5005096;28;20109;-80
2023/10/12 11:48:29;;;;;;;5.95;3.47;;;;;;;35.08;17.26;95481.94;5002680;28;20029;-80
2023/10/12 11:50:55;;;;;;;7.53;3.97;;;;;;;34.40;17.85;95485.44;4996179;28;20039;-80
2023/10/12 11:53:24;;;;;;;13.38;4.45;;;;;;;33.72;17.98;95481.75;5028531;28;20029;-79
2023/10/12 11:56:01;;;;;;;11.13;3.90;;;;;;;32.84;18.94;95476.03;5046478;28;20414;-79
2023/10/12 11:58:27;;;;;;;8.70;3.60;;;;;;;32.22;19.79;95467.56;5014618;28;20495;-80
2023/10/12 12:00:53;;;;;;;7.60;4.05;;;;;;;32.03;20.73;95469.28;5028342;28;20476;-80
2023/10/12 12:03:18;;;;;;;12.70;4.10;;;;;;;31.81;20.70;95467.94;5029006;28;20028;-80
2023/10/12 12:05:50;;;;;;;10.63;5.03;;;;;;;31.51;20.94;95471.44;5011072;28;20414;-79
2023/10/12 12:08:18;;;;;;;8.53;4.30;;;;;;;31.11;21.10;95460.50;5029867;28;20028;-79
2023/10/12 12:10:45;;;;;;;10.45;4.25;;;;;;;30.74;21.29;95445.59;5028477;28;20028;-80
2023/10/12 12:13:12;;;;;;;10.30;4.68;;;;;;;30.28;22.18;95453.03;5012145;28;20480;-80
2023/10/12 12:15:43;;;;;;;7.45;4.30;;;;;;;30.04;22.70;95448.47;5028517;28;20096;-80
2023/10/12 12:20:44;;;;;;;11.45;4.43;;;;;;;29.53;23.15;95446.13;5029754;28;20048;-81
2023/10/12 12:23:10;;;;;;;5.00;3.90;;;;;;;29.42;23.30;95443.53;5027852;28;20017;-80
2023/10/12 12:25:39;;;;;;;9.10;5.00;;;;;;;28.97;23.49;95445.34;5011466;28;20032;-81
2023/10/12 12:28:07;;;;;;;9.15;3.85;;;;;;;28.60;23.87;95437.84;5028122;28;20479;-81
2023/10/12 12:30:55;;;;;;;7.15;3.67;;;;;;;28.43;24.27;95438.19;5027644;28;20033;-81
2023/10/12 12:33:20;;;;;;;9.23;3.85;;;;;;;28.31;24.30;95431.19;5030853;28;20111;-80
2023/10/12 12:35:47;;;;;;;11.00;4.18;;;;;;;28.12;24.59;95439.78;5027197;28;20108;-81
2023/10/12 12:38:28;;;;;;;14.25;4.68;;;;;;;27.89;24.63;95433.78;5028179;28;20033;-81
2023/10/12 12:40:54;;;;;;;10.50;4.05;;;;;;;27.69;25.24;95429.47;5029716;28;20048;-81
2023/10/12 12:43:20;;;;;;;10.00;4.43;;;;;;;27.61;25.56;95433.44;5028070;28;20027;-81
2023/10/12 12:45:46;;;;;;;9.48;3.92;;;;;;;27.52;25.65;95429.72;5011342;28;20436;-81
2023/10/12 12:48:12;;;;;;;11.95;4.78;;;;;;;27.47;25.25;95424.16;5010620;28;20694;-80
2023/10/12 12:50:37;;;;;;;10.98;4.85;;;;;;;27.45;25.48;95418.31;5028225;28;20028;-80
2023/10/12 12:53:06;;;;;;;12.05;4.40;;;;;;;27.48;25.71;95425.72;5026973;28;20028;-80
2023/10/12 12:55:32;;;;;;;9.35;4.60;;;;;;;27.30;25.38;95399.06;5046180;28;20033;-80
2023/10/12 12:58:01;;;;;;;11.00;4.70;;;;;;;27.41;25.57;95415.03;5010444;28;20045;-80
2023/10/12 13:00:26;;;;;;;11.05;5.57;;;;;;;27.30;25.66;95406.72;5011526;28;20032;-80
2023/10/12 13:02:52;;;;;;;9.32;4.53;;;;;;;27.19;25.62;95402.81;5045099;28;20020;-80
2023/10/12 13:05:17;;;;;;;10.77;4.53;;;;;;;27.06;25.80;95402.72;5027188;28;20017;-80
2023/10/12 13:07:46;;;;;;;10.68;4.18;;;;;;;26.89;26.05;95402.19;5027944;28;20052;-80
2023/10/12 13:10:12;;;;;;;11.45;4.88;;;;;;;26.78;26.32;95397.47;5027455;28;20497;-79
2023/10/12 13:12:41;;;;;;;8.43;4.35;;;;;;;26.63;26.33;95395.13;5011468;28;20116;-80
2023/10/12 13:15:10;;;;;;;7.88;4.10;;;;;;;26.54;26.31;95394.72;5026698;28;20021;-80
2023/10/12 13:17:38;;;;;;;8.30;4.47;;;;;;;26.44;26.65;95389.47;5045285;28;20052;-79
2023/10/12 13:20:06;;;;;;;7.93;3.90;;;;;;;26.31;26.92;95389.31;5010796;28;20506;-79
2023/10/12 13:22:32;;;;;;;10.80;4.28;;;;;;;26.18;27.18;95383.59;5027124;28;20032;-79
2023/10/12 13:24:57;;;;;;;12.52;4.40;;;;;;;25.98;27.26;95382.03;5011098;28;20033;-80
2023/10/12 13:27:32;;;;;;;15.02;4.13;;;;;;;25.86;27.57;95386.25;5026811;28;20483;-80